createdAt,value
2018-12-07T00:00:53.050Z,11.60
2018-12-07T00:05:01.194Z,11.50
2018-12-07T00:09:09.318Z,11.50
2018-12-07T00:13:17.447Z,11.50
2018-12-07T00:17:25.561Z,11.50
2018-12-07T00:21:33.690Z,11.50
2018-12-07T00:25:41.885Z,11.50
2018-12-07T00:29:50.026Z,11.50
2018-12-07T00:33:58.181Z,11.50
2018-12-07T00:38:06.294Z,11.50
2018-12-07T00:42:14.433Z,11.50
2018-12-07T00:46:22.610Z,11.50
2018-12-07T00:50:30.767Z,11.50
2018-12-07T00:54:38.909Z,11.50
2018-12-07T00:58:47.037Z,11.60
2018-12-07T01:02:55.195Z,11.50
2018-12-07T01:07:03.354Z,11.50
2018-12-07T01:11:11.545Z,11.40
2018-12-07T01:15:19.713Z,11.40
2018-12-07T01:19:27.873Z,11.40
2018-12-07T01:23:36.049Z,11.40
2018-12-07T01:27:44.214Z,11.30
2018-12-07T01:31:52.378Z,11.30
2018-12-07T01:36:00.552Z,11.30
2018-12-07T01:40:08.720Z,11.20
2018-12-07T01:44:16.878Z,11.20
2018-12-07T01:48:25.105Z,11.30
2018-12-07T01:52:33.269Z,11.30
2018-12-07T01:56:41.430Z,11.30
2018-12-07T02:00:49.597Z,11.20
2018-12-07T02:04:57.755Z,11.20
2018-12-07T02:09:06.782Z,11.20
2018-12-07T02:13:14.938Z,11.20
2018-12-07T02:17:23.123Z,11.20
2018-12-07T02:21:31.273Z,11.20
2018-12-07T02:25:39.439Z,11.10
2018-12-07T02:29:47.602Z,11.20
2018-12-07T02:33:55.769Z,11.10
2018-12-07T02:38:04.008Z,11.10
2018-12-07T02:42:12.139Z,11.10
2018-12-07T02:46:20.272Z,11.10
2018-12-07T02:50:28.396Z,11.00
2018-12-07T02:54:36.515Z,11.00
2018-12-07T02:58:44.638Z,11.00
2018-12-07T03:02:52.761Z,11.00
2018-12-07T03:07:00.899Z,10.90
2018-12-07T03:11:09.046Z,11.00
2018-12-07T03:15:17.179Z,11.00
2018-12-07T03:19:25.306Z,10.90
2018-12-07T03:23:33.434Z,10.90
2018-12-07T03:27:41.575Z,11.00
2018-12-07T03:31:49.711Z,11.00
2018-12-07T03:35:57.840Z,10.90
2018-12-07T03:40:05.983Z,10.90
2018-12-07T03:44:14.111Z,10.90
2018-12-07T03:48:22.240Z,10.90
2018-12-07T03:52:30.375Z,10.90
2018-12-07T03:56:38.507Z,10.90
2018-12-07T04:00:46.634Z,10.90
2018-12-07T04:04:54.883Z,10.90
2018-12-07T04:09:03.162Z,10.90
2018-12-07T04:13:11.340Z,10.90
2018-12-07T04:17:19.475Z,10.90
2018-12-07T04:21:27.605Z,10.80
2018-12-07T04:25:35.754Z,10.80
2018-12-07T04:29:43.875Z,10.80
2018-12-07T04:33:52.050Z,10.80
2018-12-07T04:38:00.274Z,10.70
2018-12-07T04:42:08.430Z,10.80
2018-12-07T04:46:16.649Z,10.70
2018-12-07T04:50:24.719Z,10.80
2018-12-07T04:54:32.859Z,10.70
2018-12-07T04:58:41.037Z,10.80
2018-12-07T05:02:49.124Z,10.70
2018-12-07T05:06:57.275Z,10.70
2018-12-07T05:11:05.419Z,10.70
2018-12-07T05:15:13.602Z,10.80
2018-12-07T05:19:21.740Z,10.80
2018-12-07T05:23:29.870Z,10.80
2018-12-07T05:27:38.004Z,10.80
2018-12-07T05:31:46.142Z,10.80
2018-12-07T05:35:54.284Z,10.80
2018-12-07T05:40:02.432Z,10.80
2018-12-07T05:44:10.559Z,10.70
2018-12-07T05:48:23.572Z,10.70
2018-12-07T05:52:26.834Z,10.70
2018-12-07T05:56:34.978Z,10.70
2018-12-07T06:00:43.111Z,10.70
2018-12-07T06:04:51.238Z,10.70
2018-12-07T06:08:59.375Z,10.70
2018-12-07T06:13:07.544Z,10.70
2018-12-07T06:17:15.679Z,10.60
2018-12-07T06:21:23.821Z,10.70
2018-12-07T06:25:31.968Z,10.70
2018-12-07T06:29:40.119Z,10.60
2018-12-07T06:33:48.262Z,10.60
2018-12-07T06:37:56.399Z,10.70
2018-12-07T06:42:04.563Z,10.70
2018-12-07T06:46:12.698Z,10.70
2018-12-07T06:50:20.895Z,10.70
2018-12-07T06:54:29.041Z,10.70
2018-12-07T06:58:37.202Z,10.70
2018-12-07T07:02:45.323Z,10.70
2018-12-07T07:06:53.471Z,10.70
2018-12-07T07:11:01.601Z,10.60
2018-12-07T07:15:09.771Z,10.60
2018-12-07T07:19:17.919Z,10.60
2018-12-07T07:23:26.243Z,10.60
2018-12-07T07:27:34.395Z,10.60
2018-12-07T07:31:43.630Z,10.60
2018-12-07T07:35:51.006Z,10.60
2018-12-07T07:39:59.150Z,10.70
2018-12-07T07:44:07.298Z,10.70
2018-12-07T07:48:15.435Z,10.70
2018-12-07T07:52:23.578Z,10.70
2018-12-07T07:56:31.726Z,10.70
2018-12-07T08:00:39.870Z,10.80
2018-12-07T08:04:48.033Z,10.80
2018-12-07T08:08:56.227Z,10.80
2018-12-07T08:13:04.383Z,10.80
2018-12-07T08:17:12.527Z,10.80
2018-12-07T08:21:20.674Z,10.80
2018-12-07T08:25:28.827Z,10.80
2018-12-07T08:29:36.977Z,10.80
2018-12-07T08:33:45.144Z,10.80
2018-12-07T08:37:53.265Z,10.80
2018-12-07T08:42:06.709Z,10.80
2018-12-07T08:46:09.590Z,10.80
2018-12-07T08:50:17.761Z,10.80
2018-12-07T08:54:25.934Z,10.80
2018-12-07T08:58:34.046Z,10.80
2018-12-07T09:02:42.209Z,10.80
2018-12-07T09:06:50.356Z,10.80
2018-12-07T09:10:58.497Z,10.80
2018-12-07T09:15:06.654Z,10.80
2018-12-07T09:19:14.797Z,10.80
2018-12-07T09:23:22.933Z,10.80
2018-12-07T09:27:31.070Z,10.80
2018-12-07T09:31:39.221Z,10.90
2018-12-07T09:35:47.386Z,10.90
2018-12-07T09:39:55.514Z,11.00
2018-12-07T09:44:03.659Z,11.00
2018-12-07T09:48:11.798Z,11.00
2018-12-07T09:52:19.957Z,11.10
2018-12-07T09:56:28.125Z,11.10
2018-12-07T10:00:36.275Z,11.10
2018-12-07T10:04:44.399Z,11.00
2018-12-07T10:08:52.597Z,11.00
2018-12-07T10:13:07.757Z,11.10
2018-12-07T10:17:08.886Z,11.10
2018-12-07T10:21:17.046Z,11.10
2018-12-07T10:25:25.182Z,11.20
2018-12-07T10:29:33.298Z,11.20
2018-12-07T10:33:41.448Z,11.20
2018-12-07T10:37:49.619Z,11.20
2018-12-07T10:41:57.766Z,11.10
2018-12-07T10:46:05.911Z,11.10
2018-12-07T10:50:14.099Z,11.10
2018-12-07T10:54:22.226Z,11.10
2018-12-07T10:58:30.384Z,11.10
2018-12-07T11:02:43.761Z,11.10
2018-12-07T11:06:57.433Z,11.00
2018-12-07T11:11:11.015Z,11.00
2018-12-07T11:15:24.395Z,11.00
2018-12-07T11:19:38.064Z,11.10
2018-12-07T11:23:51.722Z,11.10
2018-12-07T11:29:05.679Z,11.20
2018-12-07T11:33:19.146Z,11.10
2018-12-07T11:37:27.290Z,11.10
2018-12-07T11:41:35.454Z,11.10
2018-12-07T11:45:43.592Z,11.10
2018-12-07T11:49:51.755Z,11.10
2018-12-07T11:53:59.903Z,11.10
2018-12-07T11:58:08.070Z,11.20
2018-12-07T12:02:16.289Z,11.20
2018-12-07T12:06:24.487Z,11.20
2018-12-07T12:10:32.680Z,11.20
2018-12-07T12:14:40.856Z,11.20
2018-12-07T12:18:49.039Z,11.30
2018-12-07T12:22:57.224Z,11.40
2018-12-07T12:27:05.440Z,11.40
2018-12-07T12:31:13.621Z,11.50
2018-12-07T12:35:21.803Z,11.40
2018-12-07T12:39:29.968Z,11.40
2018-12-07T12:43:38.164Z,11.40
2018-12-07T12:47:46.619Z,11.40
2018-12-07T12:51:54.953Z,11.40
2018-12-07T12:56:03.124Z,11.40
2018-12-07T13:00:11.304Z,11.50
2018-12-07T13:04:20.148Z,11.50
2018-12-07T13:08:28.331Z,11.60
2018-12-07T13:12:36.539Z,11.60
2018-12-07T13:16:44.708Z,11.40
2018-12-07T13:20:52.869Z,11.30
2018-12-07T13:25:01.046Z,11.20
2018-12-07T13:29:09.208Z,11.20
2018-12-07T13:33:17.398Z,11.10
2018-12-07T13:37:25.575Z,11.10
2018-12-07T13:41:33.967Z,11.00
2018-12-07T13:45:41.957Z,11.00
2018-12-07T13:49:50.873Z,10.90
2018-12-07T13:53:59.036Z,10.70
2018-12-07T13:58:07.389Z,10.70
2018-12-07T14:02:15.631Z,10.60
2018-12-07T14:06:24.119Z,10.60
2018-12-07T14:10:32.374Z,10.60
2018-12-07T14:14:40.373Z,10.50
2018-12-07T14:18:48.525Z,10.50
2018-12-07T14:22:56.741Z,10.50
2018-12-07T14:27:04.891Z,10.50
2018-12-07T14:31:13.074Z,10.50
2018-12-07T14:35:21.269Z,10.50
2018-12-07T14:39:29.437Z,10.50
2018-12-07T14:43:37.734Z,10.30
2018-12-07T14:47:45.847Z,10.20
2018-12-07T14:51:54.158Z,10.20
2018-12-07T14:56:02.261Z,10.10
2018-12-07T15:00:10.486Z,10.10
2018-12-07T15:04:18.647Z,10.00
2018-12-07T15:08:26.974Z,10.00
2018-12-07T15:12:35.034Z,10.00
2018-12-07T15:16:43.237Z,10.00
2018-12-07T15:20:51.401Z,10.00
2018-12-07T15:24:59.659Z,9.90
2018-12-07T15:29:07.835Z,9.90
2018-12-07T15:33:15.961Z,9.90
2018-12-07T15:37:24.158Z,9.90
2018-12-07T15:41:32.304Z,9.90
2018-12-07T15:45:40.605Z,9.80
2018-12-07T15:49:48.877Z,9.80
2018-12-07T15:53:56.900Z,9.80
2018-12-07T15:58:05.083Z,9.80
2018-12-07T16:02:13.238Z,9.70
2018-12-07T16:06:22.095Z,9.70
2018-12-07T16:10:30.256Z,9.70
2018-12-07T16:14:38.449Z,9.70
2018-12-07T16:18:46.825Z,9.70
2018-12-07T16:22:55.095Z,9.70
2018-12-07T16:27:03.468Z,9.70
2018-12-07T16:31:11.540Z,9.70
2018-12-07T16:35:20.435Z,9.70
2018-12-07T16:39:28.838Z,9.70
2018-12-07T16:43:36.922Z,9.70
2018-12-07T16:47:45.285Z,9.70
2018-12-07T16:51:53.920Z,9.70
2018-12-07T16:56:02.046Z,9.70
2018-12-07T17:00:10.458Z,9.70
2018-12-07T17:04:18.982Z,9.80
2018-12-07T17:08:27.420Z,9.70
2018-12-07T17:12:35.388Z,9.80
2018-12-07T17:16:43.815Z,9.80
2018-12-07T17:20:52.386Z,9.80
2018-12-07T17:25:00.635Z,9.80
2018-12-07T17:29:08.743Z,9.80
2018-12-07T17:33:17.984Z,9.60
2018-12-07T17:37:26.289Z,9.30
2018-12-07T17:41:34.810Z,9.00
2018-12-07T17:45:42.994Z,8.70
2018-12-07T17:49:51.485Z,8.50
2018-12-07T17:53:59.778Z,8.30
2018-12-07T17:58:08.031Z,8.10
2018-12-07T18:02:16.074Z,8.10
2018-12-07T18:06:24.365Z,8.00
2018-12-07T18:10:32.330Z,7.90
2018-12-07T18:14:40.507Z,7.90
2018-12-07T18:18:48.811Z,7.90
2018-12-07T18:22:56.740Z,7.90
2018-12-07T18:27:04.910Z,7.90
2018-12-07T18:31:13.007Z,7.90
2018-12-07T18:35:21.223Z,7.90
2018-12-07T18:39:29.375Z,7.90
2018-12-07T18:43:37.478Z,7.80
2018-12-07T18:47:45.665Z,7.70
2018-12-07T18:51:53.869Z,7.80
2018-12-07T18:56:01.940Z,7.70
2018-12-07T19:00:10.285Z,7.40
2018-12-07T19:04:18.604Z,7.20
2018-12-07T19:08:26.692Z,6.90
2018-12-07T19:12:34.644Z,6.60
2018-12-07T19:16:43.133Z,6.40
2018-12-07T19:20:51.590Z,6.40
2018-12-07T19:24:59.715Z,6.30
2018-12-07T19:29:07.735Z,6.30
2018-12-07T19:33:15.912Z,6.20
2018-12-07T19:37:24.128Z,6.10
2018-12-07T19:41:32.244Z,6.00
2018-12-07T19:45:40.826Z,6.00
2018-12-07T19:49:48.932Z,5.90
2018-12-07T19:53:57.200Z,5.80
2018-12-07T19:58:05.412Z,5.70
2018-12-07T20:02:13.486Z,5.60
2018-12-07T20:06:21.802Z,5.60
2018-12-07T20:10:29.926Z,5.60
2018-12-07T20:14:38.115Z,5.60
2018-12-07T20:18:46.283Z,5.70
2018-12-07T20:22:54.371Z,5.80
2018-12-07T20:27:02.404Z,6.00
2018-12-07T20:31:10.625Z,6.10
2018-12-07T20:35:19.007Z,6.20
2018-12-07T20:39:27.020Z,6.40
2018-12-07T20:43:35.351Z,6.50
2018-12-07T20:47:43.233Z,6.50
2018-12-07T20:51:51.477Z,6.50
2018-12-07T20:55:59.634Z,6.60
2018-12-07T21:00:08.978Z,6.70
2018-12-07T21:04:28.844Z,6.70
2018-12-07T21:09:23.831Z,6.80
2018-12-07T21:13:43.369Z,6.80
2018-12-07T21:17:51.682Z,6.80
2018-12-07T21:21:59.879Z,6.70
2018-12-07T21:26:07.788Z,6.70
2018-12-07T21:30:47.103Z,6.70
2018-12-07T21:34:59.424Z,6.70
2018-12-07T21:39:42.648Z,6.60
2018-12-07T21:43:50.891Z,6.60
2018-12-07T21:48:30.937Z,6.50
2018-12-07T21:52:39.258Z,6.50
2018-12-07T21:56:47.239Z,6.40
2018-12-07T22:00:55.657Z,6.30
2018-12-07T22:05:03.725Z,6.30
2018-12-07T22:09:11.758Z,6.30
2018-12-07T22:13:20.209Z,6.20
2018-12-07T22:17:28.295Z,6.20
2018-12-07T22:21:36.106Z,6.10
2018-12-07T22:25:44.238Z,6.10
2018-12-07T22:29:52.616Z,6.00
2018-12-07T22:34:00.509Z,6.00
2018-12-07T22:38:08.854Z,6.00
2018-12-07T22:42:16.836Z,6.00
2018-12-07T22:46:25.116Z,6.10
2018-12-07T22:50:32.986Z,6.10
2018-12-07T22:54:41.111Z,6.10
2018-12-07T22:58:49.238Z,6.10
2018-12-07T23:02:57.367Z,6.20
2018-12-07T23:07:05.499Z,6.20
2018-12-07T23:11:13.622Z,6.20
2018-12-07T23:15:21.759Z,6.30
2018-12-07T23:19:29.882Z,6.40
2018-12-07T23:23:38.040Z,6.40
2018-12-07T23:27:46.164Z,6.50
2018-12-07T23:31:54.306Z,6.50
2018-12-07T23:36:02.433Z,6.50
2018-12-07T23:40:10.552Z,6.50
2018-12-07T23:44:18.665Z,6.50
2018-12-07T23:48:26.794Z,6.50
2018-12-07T23:52:34.935Z,6.50
2018-12-07T23:56:43.054Z,6.50
